Terminal Aerodrome Forecast
Issued by NWS

Home | Current Version | Previous Version | Graphics & Text | Print | Product List | Glossary On
Versions: 1 2 3 4 5 6 7 8 9 10 11 12 13 14 15 16 17
173
FTUS43 KGRB 240520
TAFATW
TAF
KATW 240520Z 2406/2506 07007KT P6SM SCT030 SCT100
     FM241300 11009KT P6SM SCT030 BKN080=

USA.gov is the U.S. government's official web portal to all federal, state and local government web resources and services.